Time;durP1;ratioP1;P1;durP2;ratioP2;P2;SDS_P1;SDS_P2;PMS_P1;PMS_P2;Temp;Humidity;BMP_temperature;BMP_pressure;BME280_temperature;BME280_humidity;BME280_pressure;Samples;Min_cycle;Max_cycle;Signal;HPM_P1;HPM_P2
2022/01/04 00:00:49;;;;;;;;;;;;;;;17.89;50.36;100084.75;5016418;28;20666;-46
2022/01/04 00:03:14;;;;;;;;;;;;;;;17.88;50.42;100077.69;4984931;28;20013;-49
2022/01/04 00:05:40;;;;;;;;;;;;;;;17.87;50.37;100067.97;4984849;28;19925;-44
2022/01/04 00:08:08;;;;;;;;;;;;;;;17.86;50.38;100064.44;4985024;28;19922;-46
2022/01/04 00:10:34;;;;;;;;;;;;;;;17.85;50.59;100062.78;4985264;28;19945;-49
2022/01/04 00:15:44;;;;;;;;;;;;;;;17.85;50.26;100053.88;4984905;28;19965;-47
2022/01/04 00:18:09;;;;;;;;;;;;;;;17.82;50.54;100048.84;4984560;28;19918;-45
2022/01/04 00:20:34;;;;;;;;;;;;;;;17.82;50.53;100055.06;4984053;28;19977;-45
2022/01/04 00:23:00;;;;;;;;;;;;;;;17.82;50.41;100043.47;4984432;28;19924;-48
2022/01/04 00:25:25;;;;;;;;;;;;;;;17.81;50.49;100029.19;4984573;28;19921;-48
2022/01/04 00:27:50;;;;;;;;;;;;;;;17.81;50.45;100028.38;4984639;28;19922;-47
2022/01/04 00:30:15;;;;;;;;;;;;;;;17.81;50.33;100023.81;4984396;28;19921;-45
2022/01/04 00:32:40;;;;;;;;;;;;;;;17.81;50.53;100018.44;4984702;28;19918;-47
2022/01/04 00:35:06;;;;;;;;;;;;;;;17.80;50.54;100019.47;4984015;28;19922;-47
2022/01/04 00:37:31;;;;;;;;;;;;;;;17.80;50.39;100013.22;4984482;28;20369;-46
2022/01/04 00:39:57;;;;;;;;;;;;;;;17.80;50.45;100015.91;4984534;28;19929;-50
2022/01/04 00:42:23;;;;;;;;;;;;;;;17.79;50.50;100003.50;4984703;28;19971;-45
2022/01/04 00:44:48;;;;;;;;;;;;;;;17.79;50.56;100004.34;4984338;28;20001;-49
2022/01/04 00:47:13;;;;;;;;;;;;;;;17.79;50.52;99995.44;4984292;28;20004;-44
2022/01/04 00:49:38;;;;;;;;;;;;;;;17.79;50.59;99990.06;4983594;28;19918;-46
2022/01/04 00:52:04;;;;;;;;;;;;;;;17.77;50.44;99978.66;4984279;28;19929;-48
2022/01/04 00:54:29;;;;;;;;;;;;;;;17.77;50.33;99974.13;4984241;28;19981;-46
2022/01/04 00:56:54;;;;;;;;;;;;;;;17.77;50.34;99970.59;4984022;28;20002;-46
2022/01/04 00:59:19;;;;;;;;;;;;;;;17.76;50.39;99972.47;4984009;28;19918;-50
2022/01/04 01:01:45;;;;;;;;;;;;;;;17.74;50.49;99967.25;4984234;28;20599;-46
2022/01/04 01:04:10;;;;;;;;;;;;;;;17.76;50.32;99971.63;4983373;28;19918;-46
2022/01/04 01:06:35;;;;;;;;;;;;;;;17.74;50.55;99961.88;4984325;28;19922;-50
2022/01/04 01:09:01;;;;;;;;;;;;;;;17.74;50.52;99964.56;4984129;28;19925;-47
2022/01/04 01:11:26;;;;;;;;;;;;;;;17.74;50.59;99958.34;4983843;28;19926;-47
2022/01/04 01:13:51;;;;;;;;;;;;;;;17.73;50.42;99956.66;4983920;28;19918;-45
2022/01/04 01:16:17;;;;;;;;;;;;;;;17.72;50.25;99950.44;4984181;28;19986;-45
2022/01/04 01:18:42;;;;;;;;;;;;;;;17.72;50.54;99955.81;4983327;28;19961;-45
2022/01/04 01:21:07;;;;;;;;;;;;;;;17.71;50.37;99943.41;4983920;28;20355;-46
2022/01/04 01:23:33;;;;;;;;;;;;;;;17.71;50.39;99943.41;4983720;28;19918;-47
2022/01/04 01:25:58;;;;;;;;;;;;;;;17.71;50.60;99945.22;4983648;28;19918;-44
2022/01/04 01:28:24;;;;;;;;;;;;;;;17.71;50.46;99937.16;4983717;28;19918;-51
2022/01/04 01:30:49;;;;;;;;;;;;;;;17.70;50.48;99928.28;4983334;28;20411;-49
2022/01/04 01:33:15;;;;;;;;;;;;;;;17.70;50.47;99930.13;4982687;28;19918;-47
2022/01/04 01:35:40;;;;;;;;;;;;;;;17.69;50.46;99928.47;4983061;28;19918;-45
2022/01/04 01:38:06;;;;;;;;;;;;;;;17.68;50.32;99922.25;4983971;28;19976;-44
2022/01/04 01:40:31;;;;;;;;;;;;;;;17.68;50.37;99916.06;4983707;28;19918;-45
2022/01/04 01:42:56;;;;;;;;;;;;;;;17.67;50.55;99909.84;4983498;28;19926;-47
2022/01/04 01:45:23;;;;;;;;;;;;;;;17.66;50.26;99915.38;4983810;28;19918;-47
2022/01/04 01:47:48;;;;;;;;;;;;;;;17.65;50.48;99914.56;4983479;28;20025;-49
2022/01/04 01:50:13;;;;;;;;;;;;;;;17.65;50.33;99919.09;4983003;28;19922;-50
2022/01/04 01:52:39;;;;;;;;;;;;;;;17.65;50.31;99913.72;5015206;28;19919;-51
2022/01/04 01:55:04;;;;;;;;;;;;;;;17.64;50.32;99918.28;4983253;28;19930;-52
2022/01/04 01:57:30;;;;;;;;;;;;;;;17.63;50.29;99916.59;4983544;28;19957;-47
2022/01/04 01:59:55;;;;;;;;;;;;;;;17.63;50.27;99918.47;4983124;28;19918;-49
2022/01/04 02:02:20;;;;;;;;;;;;;;;17.63;50.34;99905.03;4983732;28;19925;-46
2022/01/04 02:04:45;;;;;;;;;;;;;;;17.63;50.30;99902.34;4982606;28;19965;-47
2022/01/04 02:07:10;;;;;;;;;;;;;;;17.62;50.46;99901.47;5014824;28;19950;-47
2022/01/04 02:09:40;;;;;;;;;;;;;;;17.62;50.35;99892.59;5014735;28;19918;-49
2022/01/04 02:12:05;;;;;;;;;;;;;;;17.62;50.33;99885.34;4983604;28;20033;-48
2022/01/04 02:14:30;;;;;;;;;;;;;;;17.62;50.41;99879.16;5014643;28;20607;-45
2022/01/04 02:16:56;;;;;;;;;;;;;;;17.61;50.42;99877.47;4983486;28;19922;-48
2022/01/04 02:19:21;;;;;;;;;;;;;;;17.59;50.49;99866.94;4982507;28;19949;-49
2022/01/04 02:21:46;;;;;;;;;;;;;;;17.60;50.44;99865.06;4983379;28;19922;-46
2022/01/04 02:24:11;;;;;;;;;;;;;;;17.60;50.21;99854.31;4983306;28;20395;-48
2022/01/04 02:26:36;;;;;;;;;;;;;;;17.58;50.37;99861.72;4983141;28;19972;-45
2022/01/04 02:29:02;;;;;;;;;;;;;;;17.58;50.36;99856.34;5014439;28;19922;-46
2022/01/04 02:31:27;;;;;;;;;;;;;;;17.57;50.37;99849.31;5014524;28;19929;-46
2022/01/04 02:33:53;;;;;;;;;;;;;;;17.56;50.51;99848.47;4982408;28;19941;-48
2022/01/04 02:36:18;;;;;;;;;;;;;;;17.56;50.29;99836.91;4983399;28;19922;-46
2022/01/04 02:38:43;;;;;;;;;;;;;;;17.55;50.51;99838.75;4983340;28;19921;-46
2022/01/04 02:41:08;;;;;;;;;;;;;;;17.54;50.39;99838.91;4982996;28;19918;-45
2022/01/04 02:43:33;;;;;;;;;;;;;;;17.53;50.52;99830.03;4983207;28;19945;-46
2022/01/04 02:45:58;;;;;;;;;;;;;;;17.53;50.35;99824.66;4984481;28;19929;-49
2022/01/04 02:48:23;;;;;;;;;;;;;;;17.53;50.42;99830.03;4986678;28;19918;-49
2022/01/04 02:50:50;;;;;;;;;;;;;;;17.52;50.48;99820.31;4985779;28;19930;-50
2022/01/04 02:53:15;;;;;;;;;;;;;;;17.52;50.39;99816.78;4986814;28;19922;-47
2022/01/04 02:55:40;;;;;;;;;;;;;;;17.42;50.50;99803.63;4986472;28;19992;-46
2022/01/04 02:58:06;;;;;;;;;;;;;;;17.51;50.44;99820.50;4986294;28;19938;-49
2022/01/04 03:00:31;;;;;;;;;;;;;;;17.51;50.67;99815.13;4986455;28;19925;-50
2022/01/04 03:02:56;;;;;;;;;;;;;;;17.49;50.44;99805.38;4986253;28;19965;-47
2022/01/04 03:05:21;;;;;;;;;;;;;;;17.48;50.55;99806.41;4985903;28;19918;-50
2022/01/04 03:07:46;;;;;;;;;;;;;;;17.48;50.44;99803.72;4986383;28;19945;-46
2022/01/04 03:10:11;;;;;;;;;;;;;;;17.47;50.38;99802.06;4986006;28;19932;-50
2022/01/04 03:12:39;;;;;;;;;;;;;;;17.47;50.39;99801.22;4986339;28;19941;-50
2022/01/04 03:15:04;;;;;;;;;;;;;;;17.46;50.62;99799.56;4986225;28;19925;-49
2022/01/04 03:17:29;;;;;;;;;;;;;;;17.46;50.40;99796.88;4986461;28;19966;-49
2022/01/04 03:19:55;;;;;;;;;;;;;;;17.46;50.50;99792.31;4985175;28;19945;-49
2022/01/04 03:22:20;;;;;;;;;;;;;;;17.44;50.33;99780.91;4986343;28;19918;-46
2022/01/04 03:24:45;;;;;;;;;;;;;;;17.44;50.61;99778.22;4985990;28;19922;-46
2022/01/04 03:27:10;;;;;;;;;;;;;;;17.44;50.47;99782.78;4985939;28;19918;-45
2022/01/04 03:29:35;;;;;;;;;;;;;;;17.43;50.58;99775.75;4985819;28;19993;-45
2022/01/04 03:32:01;;;;;;;;;;;;;;;17.43;50.55;99767.69;4985897;28;19922;-50
2022/01/04 03:34:26;;;;;;;;;;;;;;;17.42;50.58;99764.16;4985258;28;19947;-44
2022/01/04 03:36:51;;;;;;;;;;;;;;;17.41;50.55;99757.09;4985925;28;20069;-47
2022/01/04 03:39:16;;;;;;;;;;;;;;;17.42;50.53;99755.28;4985562;28;20391;-45
2022/01/04 03:41:43;;;;;;;;;;;;;;;17.41;50.37;99749.03;4985959;28;19918;-48
2022/01/04 03:44:10;;;;;;;;;;;;;;;17.41;50.50;99750.91;4985486;28;19922;-45
2022/01/04 03:46:35;;;;;;;;;;;;;;;17.39;50.31;99751.09;4985883;28;19918;-47
2022/01/04 03:49:00;;;;;;;;;;;;;;;17.39;50.43;99734.97;4983553;28;19918;-44
2022/01/04 03:51:25;;;;;;;;;;;;;;;17.39;50.50;99726.09;4984233;28;20395;-47
2022/01/04 03:53:50;;;;;;;;;;;;;;;17.38;50.54;99716.38;4985707;28;19919;-46
2022/01/04 03:56:16;;;;;;;;;;;;;;;17.37;50.44;99712.81;4984319;28;19918;-48
2022/01/04 03:58:41;;;;;;;;;;;;;;;17.37;50.55;99701.25;4985539;28;19922;-47
2022/01/04 04:01:06;;;;;;;;;;;;;;;17.36;50.56;99703.09;4985623;28;19929;-49
2022/01/04 04:03:31;;;;;;;;;;;;;;;17.36;50.35;99695.03;4985195;28;19922;-49
2022/01/04 04:05:56;;;;;;;;;;;;;;;17.36;50.42;99692.34;4984971;28;19933;-47
2022/01/04 04:08:22;;;;;;;;;;;;;;;17.36;50.50;99678.09;4985215;28;19918;-49
2022/01/04 04:10:47;;;;;;;;;;;;;;;17.35;50.48;99673.75;4985196;28;19922;-47
2022/01/04 04:13:12;;;;;;;;;;;;;;;17.34;50.37;99675.59;4983723;28;19918;-49
2022/01/04 04:15:40;;;;;;;;;;;;;;;17.34;50.34;99666.72;4985236;28;19926;-49
2022/01/04 04:18:06;;;;;;;;;;;;;;;17.33;50.46;99667.72;4985054;28;19922;-44
2022/01/04 04:20:31;;;;;;;;;;;;;;;17.32;50.52;99660.69;4984341;28;19961;-48
2022/01/04 04:22:56;;;;;;;;;;;;;;;17.30;50.33;99655.50;4985097;28;19922;-46
2022/01/04 04:25:21;;;;;;;;;;;;;;;17.30;50.36;99657.38;4984668;28;19918;-46
2022/01/04 04:27:46;;;;;;;;;;;;;;;17.30;50.37;99660.88;4984906;28;19922;-47
2022/01/04 04:30:11;;;;;;;;;;;;;;;17.29;50.30;99653.84;4983369;28;19918;-45
2022/01/04 04:32:37;;;;;;;;;;;;;;;17.29;50.50;99659.22;4984948;28;19925;-45
2022/01/04 04:35:03;;;;;;;;;;;;;;;17.29;50.51;99658.34;4984149;28;19918;-50
2022/01/04 04:37:28;;;;;;;;;;;;;;;17.28;50.50;99657.53;4984808;28;19980;-48
2022/01/04 04:39:53;;;;;;;;;;;;;;;17.29;50.58;99656.53;4984690;28;19949;-50
2022/01/04 04:42:18;;;;;;;;;;;;;;;17.29;50.34;99658.34;4984736;28;19918;-47
2022/01/04 04:44:45;;;;;;;;;;;;;;;17.28;50.51;99649.47;4984355;28;19941;-45
2022/01/04 04:47:10;;;;;;;;;;;;;;;17.28;50.43;99649.47;4984627;28;19918;-47
2022/01/04 04:49:35;;;;;;;;;;;;;;;17.29;50.34;99647.63;4983738;28;19933;-48
2022/01/04 04:52:00;;;;;;;;;;;;;;;17.28;50.33;99640.59;4984524;28;19962;-47
2022/01/04 04:54:28;;;;;;;;;;;;;;;17.28;50.34;99638.72;4984284;28;19940;-46
2022/01/04 04:56:53;;;;;;;;;;;;;;;17.27;50.46;99637.06;4984219;28;19918;-51
2022/01/04 04:59:18;;;;;;;;;;;;;;;17.27;50.48;99644.31;4982750;28;19918;-50
2022/01/04 05:01:44;;;;;;;;;;;;;;;17.27;50.42;99633.56;4984567;28;19929;-49
2022/01/04 05:04:09;;;;;;;;;;;;;;;17.28;50.52;99627.16;4983464;28;19946;-48
2022/01/04 05:06:34;;;;;;;;;;;;;;;17.27;50.38;99639.75;4984159;28;19918;-47
2022/01/04 05:08:59;;;;;;;;;;;;;;;17.27;50.26;99628.19;4984060;28;19918;-45
2022/01/04 05:11:25;;;;;;;;;;;;;;;17.27;50.30;99630.88;4983787;28;19991;-47
2022/01/04 05:13:50;;;;;;;;;;;;;;;17.26;50.42;99626.53;4984076;28;19918;-47
2022/01/04 05:16:15;;;;;;;;;;;;;;;17.24;50.28;99616.78;4984199;28;19949;-48
2022/01/04 05:18:40;;;;;;;;;;;;;;;17.26;50.57;99623.84;4983448;28;19977;-48
2022/01/04 05:21:05;;;;;;;;;;;;;;;17.24;50.50;99624.84;4983468;28;19929;-46
2022/01/04 05:23:31;;;;;;;;;;;;;;;17.24;50.40;99626.69;4982491;28;20012;-48
2022/01/04 05:25:56;;;;;;;;;;;;;;;17.25;50.33;99617.63;4983792;28;19928;-51
2022/01/04 05:28:21;;;;;;;;;;;;;;;17.23;50.30;99617.81;4983816;28;19914;-49
2022/01/04 05:30:46;;;;;;;;;;;;;;;17.23;50.39;99612.44;4983603;28;20407;-45
2022/01/04 05:33:11;;;;;;;;;;;;;;;17.23;50.24;99596.31;4983572;28;19914;-47
2022/01/04 05:35:37;;;;;;;;;;;;;;;17.23;50.44;99603.53;4983230;28;19922;-48
2022/01/04 05:38:02;;;;;;;;;;;;;;;17.22;50.25;99602.72;4983815;28;19918;-48
2022/01/04 05:40:27;;;;;;;;;;;;;;;17.21;50.50;99587.63;5014730;28;19914;-47
2022/01/04 05:42:52;;;;;;;;;;;;;;;17.21;50.42;99592.19;4983776;28;19973;-45
2022/01/04 05:45:17;;;;;;;;;;;;;;;17.23;50.32;99595.50;4983615;28;19914;-48
2022/01/04 05:47:42;;;;;;;;;;;;;;;17.22;50.43;99583.09;4983724;28;19925;-47
2022/01/04 05:50:08;;;;;;;;;;;;;;;17.22;50.40;99586.59;4983052;28;19926;-47
2022/01/04 05:52:33;;;;;;;;;;;;;;;17.22;50.28;99583.09;4983571;28;19994;-46
2022/01/04 05:54:58;;;;;;;;;;;;;;;17.22;50.34;99583.91;4982456;28;19925;-48
2022/01/04 05:57:23;;;;;;;;;;;;;;;17.22;50.22;99570.47;4983183;28;19925;-47
2022/01/04 05:59:49;;;;;;;;;;;;;;;17.22;50.42;99561.59;4982867;28;19914;-46
2022/01/04 06:02:14;;;;;;;;;;;;;;;17.22;50.33;99566.97;4983103;28;20351;-48
2022/01/04 06:04:39;;;;;;;;;;;;;;;17.22;50.37;99575.84;4981491;28;19914;-47
2022/01/04 06:07:04;;;;;;;;;;;;;;;17.22;50.38;99566.97;4980554;28;20954;-46
2022/01/04 06:09:40;;;;;;;;;;;;;;;17.22;50.40;99562.44;4983310;28;19914;-46
2022/01/04 06:14:50;;;;;;;;;;;;;;;17.22;50.45;99550.84;4975901;28;20022;-49
2022/01/04 06:14:53;;;;;;;;;;;;;;;17.23;50.32;99560.56;4982644;28;19965;-44
2022/01/04 06:17:19;;;;;;;;;;;;;;;17.23;50.46;99557.88;4982710;28;19919;-48
2022/01/04 06:19:44;;;;;;;;;;;;;;;17.23;50.36;99564.09;4983200;28;19922;-49
2022/01/04 06:22:10;;;;;;;;;;;;;;;17.23;50.43;99564.09;4986537;28;19918;-49
2022/01/04 06:24:36;;;;;;;;;;;;;;;17.23;50.61;99556.03;4986683;28;19940;-48
2022/01/04 06:27:04;;;;;;;;;;;;;;;17.23;50.72;99556.03;4986564;28;20462;-46
2022/01/04 06:29:29;;;;;;;;;;;;;;;17.24;50.73;99560.38;4986587;28;19926;-48
2022/01/04 06:31:54;;;;;;;;;;;;;;;17.24;50.68;99568.44;4986309;28;19929;-46
2022/01/04 06:34:19;;;;;;;;;;;;;;;17.24;50.52;99555.00;4985853;28;19918;-46
2022/01/04 06:36:44;;;;;;;;;;;;;;;17.25;50.64;99550.47;4986377;28;20045;-45
2022/01/04 06:39:09;;;;;;;;;;;;;;;17.24;50.73;99552.31;4986491;28;20075;-48
2022/01/04 06:41:35;;;;;;;;;;;;;;;17.25;50.77;99547.78;4988960;28;19918;-45
2022/01/04 06:44:00;;;;;;;;;;;;;;;17.25;50.69;99553.16;4986067;28;19918;-47
2022/01/04 06:46:26;;;;;;;;;;;;;;;17.26;50.73;99551.31;4995105;28;19928;-46
2022/01/04 06:48:51;;;;;;;;;;;;;;;17.26;50.75;99545.94;4987916;28;19918;-48
2022/01/04 06:51:16;;;;;;;;;;;;;;;17.25;50.83;99547.78;4985786;28;19922;-49
2022/01/04 06:53:41;;;;;;;;;;;;;;;17.27;50.75;99555.66;4991180;28;19914;-49
2022/01/04 06:56:07;;;;;;;;;;;;;;;17.26;50.87;99548.63;4993021;28;19941;-45
2022/01/04 06:58:32;;;;;;;;;;;;;;;17.27;50.83;99547.59;4989009;28;19922;-48
2022/01/04 07:00:57;;;;;;;;;;;;;;;17.26;50.89;99544.06;4991635;28;20082;-47
2022/01/04 07:03:22;;;;;;;;;;;;;;;17.28;50.98;99530.44;4988552;28;19918;-46
2022/01/04 07:05:47;;;;;;;;;;;;;;;17.28;51.04;99527.75;4991224;28;19921;-46
2022/01/04 07:08:12;;;;;;;;;;;;;;;17.28;50.92;99514.31;4988850;28;19914;-46
2022/01/04 07:10:38;;;;;;;;;;;;;;;17.28;50.99;99511.66;4989483;28;19968;-51
2022/01/04 07:13:03;;;;;;;;;;;;;;;17.28;50.85;99495.53;4989398;28;19976;-49
2022/01/04 07:15:28;;;;;;;;;;;;;;;17.29;51.11;99513.28;4988822;28;19937;-47
2022/01/04 07:17:53;;;;;;;;;;;;;;;17.28;50.96;99504.41;4991102;28;19913;-46
2022/01/04 07:20:18;;;;;;;;;;;;;;;17.27;51.12;99493.88;4987918;28;19922;-47
2022/01/04 07:22:43;;;;;;;;;;;;;;;17.27;50.97;99518.88;4991306;28;20462;-49
2022/01/04 07:25:09;;;;;;;;;;;;;;;17.28;50.95;99519.69;4993845;28;19914;-46
2022/01/04 07:27:34;;;;;;;;;;;;;;;17.28;51.10;99512.47;4993724;28;19980;-44
2022/01/04 07:29:59;;;;;;;;;;;;;;;17.29;51.05;99513.28;4991881;28;19914;-45
2022/01/04 07:32:24;;;;;;;;;;;;;;;17.28;51.16;99503.59;4995561;28;19989;-47
2022/01/04 07:34:50;;;;;;;;;;;;;;;17.26;51.21;99498.41;4988465;28;19918;-48
2022/01/04 07:37:15;;;;;;;;;;;;;;;17.29;51.04;99502.56;4991130;28;19965;-47
2022/01/04 07:39:40;;;;;;;;;;;;;;;17.29;51.18;99489.97;4988420;28;20307;-46
2022/01/04 07:42:05;;;;;;;;;;;;;;;17.32;51.20;99494.94;4988241;28;19918;-49
2022/01/04 07:44:30;;;;;;;;;;;;;;;17.33;50.98;99485.88;4991169;28;19921;-46
2022/01/04 07:46:56;;;;;;;;;;;;;;;17.35;51.01;99491.88;4986244;28;19922;-45
2022/01/04 07:49:21;;;;;;;;;;;;;;;17.36;51.17;99484.66;4987606;28;19926;-45
2022/01/04 07:51:46;;;;;;;;;;;;;;;17.37;50.90;99495.19;4991672;28;19926;-45
2022/01/04 07:54:11;;;;;;;;;;;;;;;17.38;50.98;99494.19;4990412;28;19989;-45
2022/01/04 07:56:36;;;;;;;;;;;;;;;17.39;50.96;99503.09;4985003;28;19954;-47
2022/01/04 07:59:03;;;;;;;;;;;;;;;17.40;50.99;99492.13;4985046;28;19914;-44
2022/01/04 08:01:28;;;;;;;;;;;;;;;17.39;51.03;99468.16;4978507;28;20433;-44
2022/01/04 08:03:54;;;;;;;;;;;;;;;17.41;50.89;99474.16;4981193;28;19957;-47
2022/01/04 08:06:19;;;;;;;;;;;;;;;17.42;50.93;99484.72;4980208;28;19922;-50
2022/01/04 08:08:44;;;;;;;;;;;;;;;17.43;51.22;99488.25;4982727;28;19926;-44
2022/01/04 08:11:09;;;;;;;;;;;;;;;17.44;51.03;99482.66;4982945;28;19922;-42
2022/01/04 08:13:34;;;;;;;;;;;;;;;17.46;51.03;99477.13;4982717;28;19918;-46
2022/01/04 08:15:59;;;;;;;;;;;;;;;17.47;51.22;99479.59;4982925;28;19928;-44
2022/01/04 08:18:25;;;;;;;;;;;;;;;17.49;51.19;99476.69;4982915;28;19918;-43
2022/01/04 08:20:55;;;;;;;;;;;;;;;17.51;51.07;99476.53;4982522;28;20473;-47
2022/01/04 08:23:20;;;;;;;;;;;;;;;17.52;51.06;99475.50;4983096;28;19958;-46
2022/01/04 08:25:46;;;;;;;;;;;;;;;17.52;50.96;99479.00;4981706;28;19945;-45
2022/01/04 08:28:11;;;;;;;;;;;;;;;17.54;50.91;99481.50;4982973;28;19918;-49
2022/01/04 08:30:36;;;;;;;;;;;;;;;17.55;50.82;99480.50;4982851;28;20006;-44
2022/01/04 08:33:01;;;;;;;;;;;;;;;17.55;50.91;99481.31;4982527;28;19941;-44
2022/01/04 08:35:26;;;;;;;;;;;;;;;17.57;50.92;99479.25;4980664;28;19929;-48
2022/01/04 08:37:51;;;;;;;;;;;;;;;17.58;50.96;99472.03;4982811;28;20017;-49
2022/01/04 08:40:17;;;;;;;;;;;;;;;17.59;51.08;99471.00;4982325;28;19986;-47
2022/01/04 08:42:42;;;;;;;;;;;;;;;17.60;50.93;99467.28;4982094;28;19925;-46
2022/01/04 08:45:07;;;;;;;;;;;;;;;17.62;50.87;99473.28;4981321;28;19922;-48
2022/01/04 08:47:33;;;;;;;;;;;;;;;17.63;50.83;99474.97;4979585;28;19918;-49
2022/01/04 08:49:59;;;;;;;;;;;;;;;17.64;50.61;99484.69;4981529;28;19941;-44
2022/01/04 08:52:26;;;;;;;;;;;;;;;17.64;51.05;99474.78;4982480;28;20391;-47
2022/01/04 08:54:51;;;;;;;;;;;;;;;17.66;50.80;99483.47;4982187;28;20583;-49
2022/01/04 08:57:16;;;;;;;;;;;;;;;17.67;50.86;99481.59;4982043;28;20090;-44
2022/01/04 08:59:41;;;;;;;;;;;;;;;17.69;50.67;99487.63;4982122;28;19958;-47
2022/01/04 09:02:06;;;;;;;;;;;;;;;17.71;50.62;99490.94;4982269;28;19960;-49
2022/01/04 09:04:31;;;;;;;;;;;;;;;17.74;50.69;99498.66;4981016;28;19922;-44
2022/01/04 09:06:57;;;;;;;;;;;;;;;17.76;50.54;99503.84;4982165;28;19929;-44
2022/01/04 09:09:22;;;;;;;;;;;;;;;17.78;50.70;99504.47;4982111;28;20033;-47
2022/01/04 09:11:47;;;;;;;;;;;;;;;17.79;50.46;99506.13;4982047;28;19926;-49
2022/01/04 09:14:28;;;;;;;;;;;;;;;17.81;50.67;99514.84;4982011;28;19918;-45
2022/01/04 09:19:38;;;;;;;;;;;;;;;17.83;50.37;99515.47;4981245;28;19953;-49
2022/01/04 09:22:03;;;;;;;;;;;;;;;17.82;50.28;99522.69;4982189;28;19922;-43
2022/01/04 09:24:29;;;;;;;;;;;;;;;17.83;50.26;99518.16;4981849;28;19914;-47
2022/01/04 09:26:54;;;;;;;;;;;;;;;17.82;50.35;99509.25;4981697;28;19925;-48
2022/01/04 09:29:19;;;;;;;;;;;;;;;17.84;50.40;99503.69;4980382;28;19922;-47
2022/01/04 09:31:48;;;;;;;;;;;;;;;17.84;50.25;99501.84;4978913;28;19928;-44
2022/01/04 09:34:13;;;;;;;;;;;;;;;17.85;50.28;99505.34;4980382;28;19929;-42
2022/01/04 09:36:39;;;;;;;;;;;;;;;17.87;50.21;99496.06;4980600;28;19914;-48
2022/01/04 09:39:05;;;;;;;;;;;;;;;17.89;50.41;99488.63;4981158;28;19925;-46
2022/01/04 09:41:30;;;;;;;;;;;;;;;17.93;50.50;99492.59;4981983;28;19922;-45
2022/01/04 09:43:56;;;;;;;;;;;;;;;17.95;50.19;99489.69;4980733;28;19914;-47
2022/01/04 09:46:21;;;;;;;;;;;;;;;17.98;50.50;99498.22;4979529;28;19926;-48
2022/01/04 09:48:46;;;;;;;;;;;;;;;18.01;50.27;99496.13;4981479;28;20447;-43
2022/01/04 09:51:11;;;;;;;;;;;;;;;18.03;50.18;99502.16;4980869;28;20012;-46
2022/01/04 09:53:37;;;;;;;;;;;;;;;18.07;50.26;99500.75;4981231;28;19921;-45
2022/01/04 09:56:02;;;;;;;;;;;;;;;18.08;50.34;99494.34;4979503;28;19914;-44
2022/01/04 09:58:28;;;;;;;;;;;;;;;18.09;50.20;99491.44;4981342;28;19933;-49
2022/01/04 10:00:53;;;;;;;;;;;;;;;18.12;50.20;99495.59;4980775;28;19964;-48
2022/01/04 10:03:21;;;;;;;;;;;;;;;18.12;50.00;99484.84;4981260;28;19918;-49
2022/01/04 10:05:47;;;;;;;;;;;;;;;18.16;50.25;99483.41;4980194;28;19918;-47
2022/01/04 10:08:13;;;;;;;;;;;;;;;18.18;50.23;99478.66;4981604;28;20299;-49
2022/01/04 10:10:38;;;;;;;;;;;;;;;18.19;50.19;99481.16;4980825;28;20491;-49
2022/01/04 10:13:04;;;;;;;;;;;;;;;18.22;49.95;99478.09;4981314;28;19918;-48
2022/01/04 10:15:34;;;;;;;;;;;;;;;18.28;49.92;99475.63;4980484;28;19922;-46
2022/01/04 10:18:14;;;;;;;;;;;;;;;18.32;49.98;99477.72;4981089;28;19925;-49
2022/01/04 10:20:40;;;;;;;;;;;;;;;18.37;49.67;99467.19;4978346;28;19926;-51
2022/01/04 10:23:15;;;;;;;;;;;;;;;18.42;49.61;99467.41;4979421;28;20032;-48
2022/01/04 10:25:40;;;;;;;;;;;;;;;18.47;49.65;99467.63;4977382;28;20000;-47
2022/01/04 10:28:08;;;;;;;;;;;;;;;18.52;49.63;99452.72;4978344;28;22511;-48
2022/01/04 10:30:38;;;;;;;;;;;;;;;18.54;49.35;99467.66;4979993;28;19985;-44
2022/01/04 10:33:05;;;;;;;;;;;;;;;18.56;49.42;99460.19;4978993;28;19941;-49
2022/01/04 10:35:44;;;;;;;;;;;;;;;18.58;49.23;99460.84;4981231;28;19918;-48
2022/01/04 10:38:12;;;;;;;;;;;;;;;18.62;49.42;99466.66;4978805;28;20532;-47
2022/01/04 10:40:37;;;;;;;;;;;;;;;18.64;49.06;99461.91;4982903;28;19933;-50
2022/01/04 10:43:07;;;;;;;;;;;;;;;18.65;48.91;99450.94;4983195;28;19922;-47
2022/01/04 10:45:33;;;;;;;;;;;;;;;18.67;49.08;99450.72;4983324;28;19998;-46
2022/01/04 10:48:15;;;;;;;;;;;;;;;18.66;48.99;99446.38;4983180;28;20568;-49
2022/01/04 10:50:40;;;;;;;;;;;;;;;18.64;48.95;99451.94;4982738;28;20475;-50
2022/01/04 10:53:06;;;;;;;;;;;;;;;18.63;49.07;99446.78;4982908;28;19922;-50
2022/01/04 10:55:35;;;;;;;;;;;;;;;18.59;48.69;99449.03;5014468;28;19918;-49
2022/01/04 10:58:00;;;;;;;;;;;;;;;18.57;49.08;99451.13;4983182;28;19925;-47
2022/01/04 11:00:26;;;;;;;;;;;;;;;18.55;48.84;99452.34;4982660;28;19922;-43
2022/01/04 11:02:51;;;;;;;;;;;;;;;18.54;48.82;99453.38;4972055;28;20005;-43
2022/01/04 11:05:17;;;;;;;;;;;;;;;18.53;49.13;99443.66;4978886;28;19922;-45
2022/01/04 11:07:58;;;;;;;;;;;;;;;18.53;49.00;99440.97;4984879;28;19955;-49
2022/01/04 11:10:24;;;;;;;;;;;;;;;18.54;49.03;99438.06;4986397;28;19918;-47
2022/01/04 11:12:50;;;;;;;;;;;;;;;18.56;48.96;99435.97;4985834;28;19977;-46
2022/01/04 11:15:15;;;;;;;;;;;;;;;18.57;48.97;99429.59;4990888;28;19933;-47
2022/01/04 11:17:40;;;;;;;;;;;;;;;18.59;49.00;99418.59;4989917;28;19922;-49
2022/01/04 11:20:06;;;;;;;;;;;;;;;18.60;48.68;99429.16;4984992;28;19948;-53
2022/01/04 11:22:31;;;;;;;;;;;;;;;18.60;48.66;99428.34;4986444;28;19918;-48
2022/01/04 11:24:56;;;;;;;;;;;;;;;18.59;48.88;99440.13;4986019;28;20781;-51
2022/01/04 11:27:21;;;;;;;;;;;;;;;18.57;48.75;99444.91;4984835;28;19982;-46
2022/01/04 11:29:48;;;;;;;;;;;;;;;18.54;49.03;99488.38;4972797;28;19993;-49
2022/01/04 11:32:15;;;;;;;;;;;;;;;18.51;48.81;99489.59;5021138;28;20040;-48
2022/01/04 11:34:50;;;;;;;;;;;;;;;18.48;48.94;99490.00;4986332;28;19941;-49
2022/01/04 11:37:16;;;;;;;;;;;;;;;18.46;49.02;99490.19;4989956;28;19918;-51
2022/01/04 11:39:41;;;;;;;;;;;;;;;18.46;49.03;99483.97;4987430;28;19926;-47
2022/01/04 11:42:08;;;;;;;;;;;;;;;18.48;49.01;99492.69;4990108;28;19917;-47
2022/01/04 11:44:34;;;;;;;;;;;;;;;18.50;49.11;99496.00;4988939;28;19918;-47
2022/01/04 11:46:59;;;;;;;;;;;;;;;18.52;49.14;99499.34;4988501;28;19950;-49
2022/01/04 11:49:24;;;;;;;;;;;;;;;18.55;48.90;99507.00;4989255;28;19914;-50
2022/01/04 11:51:49;;;;;;;;;;;;;;;18.57;48.91;99494.19;5022881;28;19929;-47
2022/01/04 11:54:17;;;;;;;;;;;;;;;18.59;49.01;99492.13;4988062;28;19929;-46
2022/01/04 11:56:49;;;;;;;;;;;;;;;18.62;48.72;99491.72;4988026;28;20541;-51
2022/01/04 11:59:18;;;;;;;;;;;;;;;18.64;48.90;99494.19;4990034;28;19921;-48
2022/01/04 12:01:43;;;;;;;;;;;;;;;18.67;48.88;99500.00;4989492;28;19917;-48
2022/01/04 12:04:08;;;;;;;;;;;;;;;18.70;48.69;99498.81;4988709;28;20033;-47
2022/01/04 12:06:34;;;;;;;;;;;;;;;18.71;48.63;99514.78;4987013;28;19918;-48
2022/01/04 12:09:00;;;;;;;;;;;;;;;18.71;48.87;99506.69;4987293;28;19918;-46
2022/01/04 12:11:25;;;;;;;;;;;;;;;18.71;48.57;99513.94;4989047;28;20013;-47
2022/01/04 12:13:51;;;;;;;;;;;;;;;18.70;48.81;99506.91;4986887;28;19965;-46
2022/01/04 12:16:35;;;;;;;;;;;;;;;18.61;48.84;99497.31;4986738;28;19941;-45
2022/01/04 12:19:01;;;;;;;;;;;;;;;18.70;48.87;99514.97;4985579;28;19946;-46
2022/01/04 12:21:27;;;;;;;;;;;;;;;18.69;48.73;99521.34;4985098;28;19950;-46
2022/01/04 12:23:53;;;;;;;;;;;;;;;18.68;48.73;99528.59;4985296;28;19985;-46
2022/01/04 12:26:19;;;;;;;;;;;;;;;18.66;48.98;99527.16;4984712;28;19918;-46
2022/01/04 12:28:57;;;;;;;;;;;;;;;18.64;48.86;99532.72;4984885;28;19918;-47
2022/01/04 12:31:25;;;;;;;;;;;;;;;18.62;49.11;99542.03;4984875;28;19954;-48
2022/01/04 12:33:50;;;;;;;;;;;;;;;18.61;49.13;99548.47;4984143;28;20664;-44
2022/01/04 12:36:25;;;;;;;;;;;;;;;18.59;48.99;99542.44;4984547;28;20504;-49
2022/01/04 12:38:50;;;;;;;;;;;;;;;18.59;48.94;99537.88;4984732;28;19966;-50
2022/01/04 12:41:16;;;;;;;;;;;;;;;18.38;49.10;99513.75;4984251;28;19918;-46
2022/01/04 12:43:41;;;;;;;;;;;;;;;18.56;49.34;99540.94;4983110;28;19918;-47